Harrisburg International Airport Harrisburg US
ICAO: KMDT
IATA: MDT
Category: Medium
Scheduled Services: Yes

Elevation: 310 ft
TransAlt. 18000 ft.

Airport Communications:
APP/DEP:118.25
ATIS:118.8
GND:121.7
ANG OPS:39.51
TWR:124.8

KMDT Zoom In..

Runways:

(A) RW 13 length 10002 ft width 200 ft
ILS 110.90 / hdg 128

(B) RW 31 length 10002 ft width 200 ft
ILS 110.90 / hdg 308

Location; KMDT
Day. 20 / Time. 09.56 Zulu
* Altimeter: 30.21
* Temperature: 02° c. 35.6°f.
* Wind from: 320° Speed 12 kn.
Dewpoint: -06° c.
Visibility: 10 Statute Miles.
Clouds: Few 4700 ft.
Clouds: Broken 5500 ft.

KMDT 200956Z 32012KT 10SM FEW047 BKN055 02/M06 A3021 RMK AO2 SLP232 T00221056


Wind From 320°
Speed 12 kn.

  YouTube Music Video
 
jpsmedia.com for Web Design  worldairports.se 2018   terms of use